Potomac — WBF7534 — position and weather

sailwx.info

Track history (hours):
 
Tides and Currents Weather Stations Pressure Air Temp Water Temp Dewpoint Dewpoint Depression Visibility Wind Speed Wind Dir Waves Ship Positions

Potomac

Owner: POTOMAC ASSOCIATION, OAKLAND, CA. More information available from US FCC via Universal Licensing System and Coast Guard Vessel Documentation Center.

Last reported at 2015-Sep-03 20:07 UTC. Time now 2015-Sep-04 14:39 UTC.
Position N 37°48' W 122°17'.

Length 51 m; draft 3.1 m.

MMSI: 367166810.

Date/timePositionNaut miles runAvg speedWind from/ knotsBaromVisibWave heightAir tempDewpointWater temp
2015-Sep-03 20:07N 37°48' W 122°17'0 0.9
2015-Sep-03 19:33N 37°48' W 122°17'7 7.3
2015-Sep-03 18:33N 37°52' W 122°25'8 7.3
2015-Sep-03 17:31N 37°48' W 122°17'  
2015-Aug-31 00:34N 37°48' W 122°17'8 7.7
2015-Aug-30 23:33N 37°52' W 122°25'7 6.8
2015-Aug-30 22:33N 37°48' W 122°18'1 1.2
2015-Aug-30 21:31N 37°48' W 122°17'0 0.0
2015-Aug-30 20:31N 37°48' W 122°17'0 0.0
2015-Aug-30 03:11N 37°48' W 122°17'5 8.0
2015-Aug-30 02:33N 37°50' W 122°22'5 5.2
2015-Aug-30 01:33N 37°51' W 122°29'2 2.5
2015-Aug-30 00:33N 37°50' W 122°26'1 1.3
2015-Aug-29 23:33N 37°50' W 122°25'3 2.7
2015-Aug-29 22:33N 37°51' W 122°28'0 0.4
2015-Aug-29 21:33N 37°51' W 122°29'8 7.8
2015-Aug-29 20:34N 37°48' W 122°20'2 2.2
2015-Aug-29 19:31N 37°48' W 122°17'2 0.1
2015-Aug-29 02:33N 37°48' W 122°19'2 1.6
2015-Aug-29 01:33N 37°48' W 122°17'0 0.1
2015-Aug-29 00:34N 37°48' W 122°17'3 2.9
2015-Aug-28 23:33N 37°49' W 122°20'3 2.9
2015-Aug-28 22:33N 37°48' W 122°17'1 1.3
2015-Aug-28 21:33N 37°48' W 122°18'1 1.3
2015-Aug-28 20:33N 37°48' W 122°17'1 0.0
2015-Aug-27 00:33N 37°48' W 122°18'2 2.1
2015-Aug-26 23:34N 37°48' W 122°21'  
Track history (hours):
 
Tides and Currents Weather Stations Pressure Air Temp Water Temp Dewpoint Dewpoint Depression Visibility Wind Speed Wind Dir Waves Ship Positions

Potomac

Owner: POTOMAC ASSOCIATION, OAKLAND, CA. More information available from US FCC via Universal Licensing System and Coast Guard Vessel Documentation Center.

Last reported at 2015-Sep-03 20:07 UTC. Time now 2015-Sep-04 14:39 UTC.
Position N 37°48' W 122°17'.

Length 51 m; draft 3.1 m.

MMSI: 367166810.

Date/timePositionNaut miles runAvg speedWind from/ knotsBaromVisibWave heightAir tempDewpointWater temp
2015-Sep-03 20:07N 37°48' W 122°17'0 0.9
2015-Sep-03 19:33N 37°48' W 122°17'7 7.3
2015-Sep-03 18:33N 37°52' W 122°25'8 7.3
2015-Sep-03 17:31N 37°48' W 122°17'  
2015-Aug-31 00:34N 37°48' W 122°17'8 7.7
2015-Aug-30 23:33N 37°52' W 122°25'7 6.8
2015-Aug-30 22:33N 37°48' W 122°18'1 1.2
2015-Aug-30 21:31N 37°48' W 122°17'0 0.0
2015-Aug-30 20:31N 37°48' W 122°17'0 0.0
2015-Aug-30 03:11N 37°48' W 122°17'5 8.0
2015-Aug-30 02:33N 37°50' W 122°22'5 5.2
2015-Aug-30 01:33N 37°51' W 122°29'2 2.5
2015-Aug-30 00:33N 37°50' W 122°26'1 1.3
2015-Aug-29 23:33N 37°50' W 122°25'3 2.7
2015-Aug-29 22:33N 37°51' W 122°28'0 0.4
2015-Aug-29 21:33N 37°51' W 122°29'8 7.8
2015-Aug-29 20:34N 37°48' W 122°20'2 2.2
2015-Aug-29 19:31N 37°48' W 122°17'2 0.1
2015-Aug-29 02:33N 37°48' W 122°19'2 1.6
2015-Aug-29 01:33N 37°48' W 122°17'0 0.1
2015-Aug-29 00:34N 37°48' W 122°17'3 2.9
2015-Aug-28 23:33N 37°49' W 122°20'3 2.9
2015-Aug-28 22:33N 37°48' W 122°17'1 1.3
2015-Aug-28 21:33N 37°48' W 122°18'1 1.3
2015-Aug-28 20:33N 37°48' W 122°17'1 0.0
2015-Aug-27 00:33N 37°48' W 122°18'2 2.1
2015-Aug-26 23:34N 37°48' W 122°21'  

Dump ship's entire track history